Metar Aviation Weather Data      Northwest Florida Beaches International
Temperature
73°F Temperature
68°F Dewpoint
83% Humidity



Wind
13 MPH
21 KM/H
6 M/S
11 KTS



140°
SE
Current Conditions

Mostly Cloudy Mostly Cloudy
Pressure 1015.22 (hPa) - 29.98 (inHg)
Visibility 10 (mile) - 16.1 (km)
Airport
Airport-code

Location Northwest Florida Beaches International 23 (mi)

Metar:
KECP 291553Z 14011G19KT 10SM BKN009 BKN035 OVC095 23/20 A2998 RMK AO2 SLP163 T02330200

Time: 29-12-2019 09:53 CST